Abspann, Germany

11:53 AM CEST on April 25, 2017 (GMT +0200)
Kemnather Straße | | Change Station

Elev 1712 ft 49.84 °N, 12.04 °E | Updated 1 minute ago

Mostly Cloudy
Mostly Cloudy
54.0 °F
Feels Like 54.0 °F
N
3.7
Wind Variable Wind from NW
Gusts 10.6 mph

Today
High -- | Low -- °F
--% Chance of Precip.
Yesterday
High -- | Low -- °F
Precip. -- in
Pressure 29.72 in
Visibility 6.2 miles
Clouds Few 4700 ft
Dew Point 39 °F
Humidity 56%
Rainfall 0.00 in
Snow Depth Not available.
5:59 AM 8:21 PM
Waning Crescent, 2% visible
METAR ETIC 250858Z AUTO 28011G16KT 9999 FEW047 13/02 A2970 RMK AO2 SLP064 52008
Pressure 29.72 in
Visibility 6.2 miles
Clouds Few 4700 ft
Dew Point 39 °F
Humidity 56%
Rainfall 0.00 in
Snow Depth Not available.
5:59 AM 8:21 PM
Waning Crescent, 2% visible
METAR ETIC 250858Z AUTO 28011G16KT 9999 FEW047 13/02 A2970 RMK AO2 SLP064 52008

Get Severe Weather Alerts

Thanks for signing up!

Be on the lookout for a verification email in your inbox.

You'll start receiving the daily forecast at 8 AM.

×

10-Day Weather Forecast

×

Almanac

Astronomy

Apr. 25, 2017 Rise Set
Actual Time
Civil Twilight
Nautical Twilight
Astronomical Twilight
Moon
Length of Visible Light
Length of Day
Tomorrow will be .
, % of the Moon is Illuminated

Today's Extremes

Country Highs Country Lows

Community

WunderPhotos

WunderBlog® & News

Nearby

Air Quality

  Air Quality AQ Index Pollutant
Not available.

Snow Depth

Station Depth Elevation

Earthquake Activity

City Distance Mag. Time & Date
Minimum magnitude displayed is 2.5.

Coastal Water Temperatures

Place Temperature

Stations

Nearby Weather Stations

Station Location Temp. Windchill Dew Point Humidity Wind Precip. Elev Updated Type